Terminal Aerodrome Forecast
Issued by NWS

Current Version | Previous Version | Text Only | Print | Product List | Glossary On
Versions: 1 2 3 4 5 6 7 8 9 10 11 12 13 14 15 16 17 18 19 20 21 22 23 24
000
FTUS43 KAPX 211700
TAFTVC
TAF
KTVC 211739Z 2118/2218 03007KT P6SM OVC220
     FM220200 00000KT P6SM SCT025 OVC120
     FM220500 00000KT 4SM -SHRA BR SCT022 OVC040
     FM220900 00000KT 4SM -SHRA BR OVC018
     FM221300 11004KT P6SM OVC022=

USA.gov is the U.S. government's official web portal to all federal, state and local government web resources and services.